sensor_id;sensor_type;location;lat;lon;timestamp;pressure;altitude;pressure_sealevel;temperature;humidity
76060;BME280;64759;52.220;5.170;2023-02-15T00:01:55;102882.03;;;5.93;73.26
76060;BME280;64759;52.220;5.170;2023-02-15T00:04:22;102886.53;;;5.88;72.80
76060;BME280;64759;52.220;5.170;2023-02-15T00:06:48;102881.66;;;5.81;72.93
76060;BME280;64759;52.220;5.170;2023-02-15T00:09:14;102884.53;;;5.73;72.78
76060;BME280;64759;52.220;5.170;2023-02-15T00:11:39;102882.97;;;5.69;73.38
76060;BME280;64759;52.220;5.170;2023-02-15T00:14:11;102875.19;;;5.71;73.32
76060;BME280;64759;52.220;5.170;2023-02-15T00:16:37;102888.06;;;5.71;73.61
76060;BME280;64759;52.220;5.170;2023-02-15T00:19:04;102882.97;;;5.69;73.58
76060;BME280;64759;52.220;5.170;2023-02-15T00:21:31;102880.59;;;5.65;73.22
76060;BME280;64759;52.220;5.170;2023-02-15T00:23:58;102876.41;;;5.62;73.63
76060;BME280;64759;52.220;5.170;2023-02-15T00:26:24;102867.84;;;5.62;73.73
76060;BME280;64759;52.220;5.170;2023-02-15T00:28:50;102868.75;;;5.61;73.54
76060;BME280;64759;52.220;5.170;2023-02-15T00:31:15;102863.59;;;5.61;73.60
76060;BME280;64759;52.220;5.170;2023-02-15T00:33:41;102856.66;;;5.63;73.40
76060;BME280;64759;52.220;5.170;2023-02-15T00:36:08;102854.94;;;5.63;73.65
76060;BME280;64759;52.220;5.170;2023-02-15T00:38:34;102851.47;;;5.64;72.90
76060;BME280;64759;52.220;5.170;2023-02-15T00:41:02;102858.53;;;5.59;74.04
76060;BME280;64759;52.220;5.170;2023-02-15T00:43:29;102852.66;;;5.56;73.52
76060;BME280;64759;52.220;5.170;2023-02-15T00:45:55;102854.53;;;5.52;73.66
76060;BME280;64759;52.220;5.170;2023-02-15T00:48:21;102847.78;;;5.50;73.82
76060;BME280;64759;52.220;5.170;2023-02-15T00:50:49;102846.09;;;5.49;73.50
76060;BME280;64759;52.220;5.170;2023-02-15T00:53:15;102855.13;;;5.59;73.76
76060;BME280;64759;52.220;5.170;2023-02-15T00:55:41;102849.91;;;5.60;72.87
76060;BME280;64759;52.220;5.170;2023-02-15T00:58:07;102852.25;;;5.66;72.81
76060;BME280;64759;52.220;5.170;2023-02-15T01:00:33;102854.72;;;5.69;72.94
76060;BME280;64759;52.220;5.170;2023-02-15T01:02:59;102847.66;;;5.74;72.67
76060;BME280;64759;52.220;5.170;2023-02-15T01:05:24;102851.28;;;5.69;72.35
76060;BME280;64759;52.220;5.170;2023-02-15T01:07:49;102853.31;;;5.61;72.33
76060;BME280;64759;52.220;5.170;2023-02-15T01:10:15;102845.13;;;5.51;73.63
76060;BME280;64759;52.220;5.170;2023-02-15T01:12:41;102842.81;;;5.45;73.74
76060;BME280;64759;52.220;5.170;2023-02-15T01:15:07;102838.78;;;5.38;73.52
76060;BME280;64759;52.220;5.170;2023-02-15T01:17:33;102833.06;;;5.32;74.22
76060;BME280;64759;52.220;5.170;2023-02-15T01:19:58;102824.81;;;5.23;74.02
76060;BME280;64759;52.220;5.170;2023-02-15T01:22:24;102820.28;;;5.30;73.78
76060;BME280;64759;52.220;5.170;2023-02-15T01:24:50;102820.81;;;5.38;73.17
76060;BME280;64759;52.220;5.170;2023-02-15T01:27:15;102823.34;;;5.40;72.71
76060;BME280;64759;52.220;5.170;2023-02-15T01:29:42;102817.53;;;5.35;72.72
76060;BME280;64759;52.220;5.170;2023-02-15T01:32:08;102809.75;;;5.36;73.27
76060;BME280;64759;52.220;5.170;2023-02-15T01:34:33;102809.66;;;5.39;72.15
76060;BME280;64759;52.220;5.170;2023-02-15T01:36:59;102811.63;;;5.33;73.02
76060;BME280;64759;52.220;5.170;2023-02-15T01:39:24;102805.00;;;5.27;72.79
76060;BME280;64759;52.220;5.170;2023-02-15T01:41:50;102809.28;;;5.26;72.69
76060;BME280;64759;52.220;5.170;2023-02-15T01:44:51;102806.69;;;5.28;72.85
76060;BME280;64759;52.220;5.170;2023-02-15T01:47:36;102799.78;;;5.28;72.67
76060;BME280;64759;52.220;5.170;2023-02-15T01:50:09;102800.69;;;5.27;71.50
76060;BME280;64759;52.220;5.170;2023-02-15T01:52:41;102796.63;;;5.22;72.13
76060;BME280;64759;52.220;5.170;2023-02-15T01:55:08;102795.84;;;5.20;72.18
76060;BME280;64759;52.220;5.170;2023-02-15T01:57:34;102798.47;;;5.18;72.44
76060;BME280;64759;52.220;5.170;2023-02-15T02:00:03;102796.06;;;5.14;72.39
76060;BME280;64759;52.220;5.170;2023-02-15T02:02:38;102794.59;;;5.08;72.27
76060;BME280;64759;52.220;5.170;2023-02-15T02:05:05;102797.50;;;4.99;72.81
76060;BME280;64759;52.220;5.170;2023-02-15T02:07:35;102791.84;;;4.91;72.65
76060;BME280;64759;52.220;5.170;2023-02-15T02:10:07;102784.69;;;4.76;73.73
76060;BME280;64759;52.220;5.170;2023-02-15T02:12:34;102781.63;;;4.67;73.68
76060;BME280;64759;52.220;5.170;2023-02-15T02:15:02;102779.13;;;4.65;74.32
76060;BME280;64759;52.220;5.170;2023-02-15T02:34:16;102753.19;;;4.94;72.59
76060;BME280;64759;52.220;5.170;2023-02-15T02:42:54;102745.63;;;4.91;73.41
76060;BME280;64759;52.220;5.170;2023-02-15T02:45:43;102752.59;;;4.88;72.94
76060;BME280;64759;52.220;5.170;2023-02-15T02:48:15;102749.06;;;4.90;73.05
76060;BME280;64759;52.220;5.170;2023-02-15T02:50:41;102749.97;;;4.89;73.53
76060;BME280;64759;52.220;5.170;2023-02-15T02:53:09;102743.09;;;4.90;73.35
76060;BME280;64759;52.220;5.170;2023-02-15T02:55:49;102741.38;;;4.90;73.40
76060;BME280;64759;52.220;5.170;2023-02-15T02:58:45;102739.56;;;4.92;73.42
76060;BME280;64759;52.220;5.170;2023-02-15T03:01:24;102737.97;;;4.90;73.33
76060;BME280;64759;52.220;5.170;2023-02-15T03:04:02;102733.75;;;4.89;73.49
76060;BME280;64759;52.220;5.170;2023-02-15T03:09:12;102725.31;;;4.85;73.27
76060;BME280;64759;52.220;5.170;2023-02-15T03:11:43;102718.63;;;4.81;73.44
76060;BME280;64759;52.220;5.170;2023-02-15T03:14:10;102716.34;;;4.74;73.77
76060;BME280;64759;52.220;5.170;2023-02-15T03:16:37;102709.66;;;4.70;74.06
76060;BME280;64759;52.220;5.170;2023-02-15T03:19:17;102715.97;;;4.61;73.94
76060;BME280;64759;52.220;5.170;2023-02-15T03:21:56;102715.41;;;4.53;73.61
76060;BME280;64759;52.220;5.170;2023-02-15T03:24:28;102711.41;;;4.46;74.61
76060;BME280;64759;52.220;5.170;2023-02-15T03:26:56;102711.31;;;4.49;74.83
76060;BME280;64759;52.220;5.170;2023-02-15T03:29:25;102704.38;;;4.51;74.56
76060;BME280;64759;52.220;5.170;2023-02-15T03:31:57;102710.19;;;4.56;73.92
76060;BME280;64759;52.220;5.170;2023-02-15T03:34:24;102708.50;;;4.55;74.06
76060;BME280;64759;52.220;5.170;2023-02-15T03:37:01;102699.81;;;4.59;74.21
76060;BME280;64759;52.220;5.170;2023-02-15T03:42:09;102699.81;;;4.59;73.07
76060;BME280;64759;52.220;5.170;2023-02-15T03:45:05;102700.09;;;4.51;73.61
76060;BME280;64759;52.220;5.170;2023-02-15T03:47:36;102699.25;;;4.51;73.64
76060;BME280;64759;52.220;5.170;2023-02-15T03:50:24;102698.31;;;4.53;74.55
76060;BME280;64759;52.220;5.170;2023-02-15T03:53:12;102698.31;;;4.53;74.29
76060;BME280;64759;52.220;5.170;2023-02-15T03:55:39;102696.56;;;4.54;74.11
76060;BME280;64759;52.220;5.170;2023-02-15T03:58:05;102691.31;;;4.57;74.59
76060;BME280;64759;52.220;5.170;2023-02-15T04:00:55;102687.75;;;4.61;73.66
76060;BME280;64759;52.220;5.170;2023-02-15T04:04:07;102688.75;;;4.57;74.25
76060;BME280;64759;52.220;5.170;2023-02-15T04:06:35;102683.69;;;4.55;73.41
76060;BME280;64759;52.220;5.170;2023-02-15T04:09:00;102689.66;;;4.56;74.03
76060;BME280;64759;52.220;5.170;2023-02-15T04:11:44;102684.91;;;4.45;74.20
76060;BME280;64759;52.220;5.170;2023-02-15T04:14:11;102679.09;;;4.42;74.70
76060;BME280;64759;52.220;5.170;2023-02-15T04:16:55;102678.84;;;4.48;74.64
76060;BME280;64759;52.220;5.170;2023-02-15T04:19:20;102681.28;;;4.51;73.31
76060;BME280;64759;52.220;5.170;2023-02-15T04:22:04;102672.94;;;4.46;73.54
76060;BME280;64759;52.220;5.170;2023-02-15T04:24:48;102669.63;;;4.42;74.06
76060;BME280;64759;52.220;5.170;2023-02-15T04:27:31;102672.16;;;4.44;73.65
76060;BME280;64759;52.220;5.170;2023-02-15T04:29:57;102668.81;;;4.42;74.11
76060;BME280;64759;52.220;5.170;2023-02-15T04:32:24;102667.13;;;4.41;73.73
76060;BME280;64759;52.220;5.170;2023-02-15T04:34:49;102668.09;;;4.38;74.05
76060;BME280;64759;52.220;5.170;2023-02-15T04:37:15;102659.50;;;4.39;74.10
76060;BME280;64759;52.220;5.170;2023-02-15T04:39:40;102655.38;;;4.35;74.77
76060;BME280;64759;52.220;5.170;2023-02-15T04:42:06;102657.44;;;4.26;75.37
76060;BME280;64759;52.220;5.170;2023-02-15T04:44:32;102656.50;;;4.28;75.47
76060;BME280;64759;52.220;5.170;2023-02-15T04:46:57;102651.44;;;4.27;75.10
76060;BME280;64759;52.220;5.170;2023-02-15T04:49:22;102649.75;;;4.26;75.22
76060;BME280;64759;52.220;5.170;2023-02-15T04:51:48;102649.72;;;4.27;75.24
76060;BME280;64759;52.220;5.170;2023-02-15T04:54:13;102653.16;;;4.26;75.31
76060;BME280;64759;52.220;5.170;2023-02-15T04:56:39;102654.03;;;4.25;76.08
76060;BME280;64759;52.220;5.170;2023-02-15T04:59:05;102648.97;;;4.24;76.31
76060;BME280;64759;52.220;5.170;2023-02-15T05:01:30;102644.63;;;4.26;76.07
76060;BME280;64759;52.220;5.170;2023-02-15T05:03:56;102643.78;;;4.25;75.74
76060;BME280;64759;52.220;5.170;2023-02-15T05:06:21;102650.69;;;4.23;76.24
76060;BME280;64759;52.220;5.170;2023-02-15T05:08:47;102654.16;;;4.22;76.44
76060;BME280;64759;52.220;5.170;2023-02-15T05:11:12;102655.22;;;4.17;76.77
76060;BME280;64759;52.220;5.170;2023-02-15T05:13:38;102646.69;;;4.16;76.93
76060;BME280;64759;52.220;5.170;2023-02-15T05:16:03;102658.63;;;4.17;76.71
76060;BME280;64759;52.220;5.170;2023-02-15T05:18:29;102658.56;;;4.19;76.86
76060;BME280;64759;52.220;5.170;2023-02-15T05:20:54;102656.78;;;4.21;76.37
76060;BME280;64759;52.220;5.170;2023-02-15T05:23:20;102658.28;;;4.26;76.17
76060;BME280;64759;52.220;5.170;2023-02-15T05:25:49;102650.59;;;4.26;76.39
76060;BME280;64759;52.220;5.170;2023-02-15T05:28:35;102647.28;;;4.23;76.10
76060;BME280;64759;52.220;5.170;2023-02-15T05:31:18;102649.09;;;4.21;76.78
76060;BME280;64759;52.220;5.170;2023-02-15T05:33:44;102642.16;;;4.23;76.02
76060;BME280;64759;52.220;5.170;2023-02-15T05:36:10;102637.38;;;4.14;76.52
76060;BME280;64759;52.220;5.170;2023-02-15T05:38:37;102634.03;;;4.12;76.46
76060;BME280;64759;52.220;5.170;2023-02-15T05:41:05;102637.91;;;4.00;77.39
76060;BME280;64759;52.220;5.170;2023-02-15T05:43:32;102643.81;;;4.02;77.29
76060;BME280;64759;52.220;5.170;2023-02-15T05:45:57;102643.13;;;3.97;77.49
76060;BME280;64759;52.220;5.170;2023-02-15T05:48:25;102638.09;;;3.94;77.23
76060;BME280;64759;52.220;5.170;2023-02-15T05:51:02;102643.22;;;3.94;77.61
76060;BME280;64759;52.220;5.170;2023-02-15T05:53:29;102641.69;;;3.90;77.67
76060;BME280;64759;52.220;5.170;2023-02-15T05:55:55;102645.22;;;3.86;78.26
76060;BME280;64759;52.220;5.170;2023-02-15T05:58:28;102637.78;;;3.80;78.27
76060;BME280;64759;52.220;5.170;2023-02-15T06:00:54;102638.56;;;3.57;79.48
76060;BME280;64759;52.220;5.170;2023-02-15T06:03:21;102640.78;;;3.42;80.35
76060;BME280;64759;52.220;5.170;2023-02-15T06:05:46;102639.06;;;3.42;80.02
76060;BME280;64759;52.220;5.170;2023-02-15T06:08:12;102642.38;;;3.46;80.05
76060;BME280;64759;52.220;5.170;2023-02-15T06:10:37;102627.88;;;3.46;79.52
76060;BME280;64759;52.220;5.170;2023-02-15T06:13:05;102624.50;;;3.44;79.59
76060;BME280;64759;52.220;5.170;2023-02-15T06:15:31;102627.47;;;3.32;80.55
76060;BME280;64759;52.220;5.170;2023-02-15T06:17:56;102624.91;;;3.32;80.42
76060;BME280;64759;52.220;5.170;2023-02-15T06:20:22;102628.00;;;3.17;80.67
76060;BME280;64759;52.220;5.170;2023-02-15T06:22:47;102624.69;;;3.13;80.65
76060;BME280;64759;52.220;5.170;2023-02-15T06:25:13;102630.81;;;3.09;81.20
76060;BME280;64759;52.220;5.170;2023-02-15T06:27:41;102624.06;;;3.07;81.38
76060;BME280;64759;52.220;5.170;2023-02-15T06:30:08;102623.66;;;2.93;82.21
76060;BME280;64759;52.220;5.170;2023-02-15T06:32:34;102624.50;;;2.93;81.86
76060;BME280;64759;52.220;5.170;2023-02-15T06:35:00;102626.03;;;2.99;82.23
76060;BME280;64759;52.220;5.170;2023-02-15T06:37:25;102618.28;;;3.00;81.70
76060;BME280;64759;52.220;5.170;2023-02-15T06:39:51;102631.78;;;3.05;81.54
76060;BME280;64759;52.220;5.170;2023-02-15T06:42:16;102631.00;;;3.03;81.81
76060;BME280;64759;52.220;5.170;2023-02-15T06:44:43;102634.56;;;2.98;81.77
76060;BME280;64759;52.220;5.170;2023-02-15T06:47:09;102638.97;;;2.94;81.91
76060;BME280;64759;52.220;5.170;2023-02-15T06:49:34;102632.88;;;2.98;82.10
76060;BME280;64759;52.220;5.170;2023-02-15T06:51:59;102635.47;;;2.97;82.29
76060;BME280;64759;52.220;5.170;2023-02-15T06:54:25;102625.41;;;2.92;82.61
76060;BME280;64759;52.220;5.170;2023-02-15T06:56:50;102629.59;;;2.95;82.27
76060;BME280;64759;52.220;5.170;2023-02-15T06:59:16;102628.78;;;2.93;82.58
76060;BME280;64759;52.220;5.170;2023-02-15T07:01:41;102633.09;;;2.91;82.26
76060;BME280;64759;52.220;5.170;2023-02-15T07:04:07;102625.41;;;2.92;82.00
76060;BME280;64759;52.220;5.170;2023-02-15T07:06:33;102623.88;;;2.87;82.73
76060;BME280;64759;52.220;5.170;2023-02-15T07:08:59;102624.00;;;2.82;82.44
76060;BME280;64759;52.220;5.170;2023-02-15T07:11:24;102624.66;;;2.89;82.36
76060;BME280;64759;52.220;5.170;2023-02-15T07:14:09;102629.75;;;2.89;82.92
76060;BME280;64759;52.220;5.170;2023-02-15T07:16:34;102616.66;;;2.98;82.40
76060;BME280;64759;52.220;5.170;2023-02-15T07:18:59;102618.50;;;2.94;82.62
76060;BME280;64759;52.220;5.170;2023-02-15T07:21:25;102620.97;;;2.97;82.50
76060;BME280;64759;52.220;5.170;2023-02-15T07:23:50;102620.59;;;3.08;82.59
76060;BME280;64759;52.220;5.170;2023-02-15T07:26:16;102612.31;;;3.00;82.00
76060;BME280;64759;52.220;5.170;2023-02-15T07:28:41;102610.47;;;3.05;82.06
76060;BME280;64759;52.220;5.170;2023-02-15T07:31:07;102603.44;;;3.11;82.24
76060;BME280;64759;52.220;5.170;2023-02-15T07:33:33;102594.97;;;3.09;81.98
76060;BME280;64759;52.220;5.170;2023-02-15T07:36:01;102604.91;;;3.18;81.94
76060;BME280;64759;52.220;5.170;2023-02-15T07:38:30;102591.88;;;3.24;81.83
76060;BME280;64759;52.220;5.170;2023-02-15T07:41:07;102601.41;;;3.21;81.94
76060;BME280;64759;52.220;5.170;2023-02-15T07:43:36;102594.31;;;3.29;81.69
76060;BME280;64759;52.220;5.170;2023-02-15T07:46:03;102598.53;;;3.30;81.85
76060;BME280;64759;52.220;5.170;2023-02-15T07:48:29;102594.09;;;3.35;81.72
76060;BME280;64759;52.220;5.170;2023-02-15T07:50:59;102594.41;;;3.51;81.16
76060;BME280;64759;52.220;5.170;2023-02-15T07:53:25;102592.25;;;3.63;81.06
76060;BME280;64759;52.220;5.170;2023-02-15T07:55:50;102586.28;;;3.63;80.58
76060;BME280;64759;52.220;5.170;2023-02-15T07:58:17;102591.91;;;3.72;80.13
76060;BME280;64759;52.220;5.170;2023-02-15T08:00:43;102587.59;;;3.50;80.74
76060;BME280;64759;52.220;5.170;2023-02-15T08:03:24;102582.88;;;3.62;80.97
76060;BME280;64759;52.220;5.170;2023-02-15T08:05:55;102578.38;;;3.69;80.75
76060;BME280;64759;52.220;5.170;2023-02-15T08:08:21;102576.31;;;3.78;80.70
76060;BME280;64759;52.220;5.170;2023-02-15T08:13:54;102575.31;;;3.82;80.41
76060;BME280;64759;52.220;5.170;2023-02-15T08:16:36;102568.97;;;3.92;80.20
76060;BME280;64759;52.220;5.170;2023-02-15T08:19:06;102569.56;;;3.99;79.94
76060;BME280;64759;52.220;5.170;2023-02-15T08:21:33;102564.38;;;4.01;79.39
76060;BME280;64759;52.220;5.170;2023-02-15T08:23:59;102560.66;;;4.09;80.10
76060;BME280;64759;52.220;5.170;2023-02-15T08:26:26;102565.59;;;4.14;79.54
76060;BME280;64759;52.220;5.170;2023-02-15T08:28:52;102561.25;;;4.16;79.25
76060;BME280;64759;52.220;5.170;2023-02-15T08:31:18;102563.47;;;4.25;79.30
76060;BME280;64759;52.220;5.170;2023-02-15T08:33:45;102557.78;;;4.38;79.46
76060;BME280;64759;52.220;5.170;2023-02-15T08:36:19;102565.00;;;4.29;79.51
76060;BME280;64759;52.220;5.170;2023-02-15T08:38:45;102565.75;;;4.32;79.44
76060;BME280;64759;52.220;5.170;2023-02-15T08:41:22;102563.34;;;4.49;78.93
76060;BME280;64759;52.220;5.170;2023-02-15T08:43:50;102558.09;;;4.52;79.14
76060;BME280;64759;52.220;5.170;2023-02-15T08:46:16;102554.22;;;4.64;78.37
76060;BME280;64759;52.220;5.170;2023-02-15T08:48:42;102553.91;;;4.72;78.52
76060;BME280;64759;52.220;5.170;2023-02-15T08:51:19;102552.13;;;4.94;78.05
76060;BME280;64759;52.220;5.170;2023-02-15T08:53:47;102552.81;;;4.97;77.36
76060;BME280;64759;52.220;5.170;2023-02-15T08:56:17;102549.75;;;5.09;77.07
76060;BME280;64759;52.220;5.170;2023-02-15T08:58:43;102548.56;;;5.37;77.20
76060;BME280;64759;52.220;5.170;2023-02-15T09:01:11;102543.69;;;5.69;75.76
76060;BME280;64759;52.220;5.170;2023-02-15T09:03:37;102557.22;;;6.12;75.40
76060;BME280;64759;52.220;5.170;2023-02-15T09:06:03;102541.31;;;6.39;73.31
76060;BME280;64759;52.220;5.170;2023-02-15T09:08:29;102550.44;;;6.81;72.60
76060;BME280;64759;52.220;5.170;2023-02-15T09:11:04;102543.63;;;7.14;70.49
76060;BME280;64759;52.220;5.170;2023-02-15T09:13:30;102547.38;;;7.24;69.63
76060;BME280;64759;52.220;5.170;2023-02-15T09:16:00;102542.47;;;7.52;68.95
76060;BME280;64759;52.220;5.170;2023-02-15T09:18:26;102541.06;;;7.62;68.36
76060;BME280;64759;52.220;5.170;2023-02-15T09:20:51;102541.09;;;7.78;67.59
76060;BME280;64759;52.220;5.170;2023-02-15T09:23:16;102536.69;;;7.80;66.96
76060;BME280;64759;52.220;5.170;2023-02-15T09:25:42;102533.19;;;7.97;67.54
76060;BME280;64759;52.220;5.170;2023-02-15T09:28:08;102536.38;;;8.17;67.15
76060;BME280;64759;52.220;5.170;2023-02-15T09:30:33;102538.09;;;8.48;66.95
76060;BME280;64759;52.220;5.170;2023-02-15T09:32:59;102536.72;;;8.72;65.65
76060;BME280;64759;52.220;5.170;2023-02-15T09:35:25;102532.50;;;8.85;65.48
76060;BME280;64759;52.220;5.170;2023-02-15T09:37:50;102535.38;;;8.95;64.75
76060;BME280;64759;52.220;5.170;2023-02-15T09:40:17;102529.88;;;9.15;64.20
76060;BME280;64759;52.220;5.170;2023-02-15T09:43:31;102535.31;;;9.25;62.66
76060;BME280;64759;52.220;5.170;2023-02-15T09:46:03;102534.94;;;9.59;63.23
76060;BME280;64759;52.220;5.170;2023-02-15T09:48:42;102540.75;;;9.76;61.70
76060;BME280;64759;52.220;5.170;2023-02-15T09:56:51;102534.69;;;11.09;58.53
76060;BME280;64759;52.220;5.170;2023-02-15T09:59:45;102534.03;;;11.06;56.11
76060;BME280;64759;52.220;5.170;2023-02-15T10:08:00;102550.38;;;10.29;57.89
76060;BME280;64759;52.220;5.170;2023-02-15T10:10:58;102556.78;;;10.10;59.32
76060;BME280;64759;52.220;5.170;2023-02-15T10:22:45;102555.75;;;8.99;61.52
76060;BME280;64759;52.220;5.170;2023-02-15T10:28:06;102558.47;;;9.12;62.19
76060;BME280;64759;52.220;5.170;2023-02-15T10:33:18;102564.91;;;10.04;60.06
76060;BME280;64759;52.220;5.170;2023-02-15T10:43:51;102556.41;;;11.82;56.09
76060;BME280;64759;52.220;5.170;2023-02-15T10:46:38;102554.41;;;12.46;54.43
76060;BME280;64759;52.220;5.170;2023-02-15T10:55:08;102546.38;;;13.85;49.77
76060;BME280;64759;52.220;5.170;2023-02-15T10:58:05;102537.63;;;13.64;49.91
76060;BME280;64759;52.220;5.170;2023-02-15T11:00:39;102534.69;;;13.68;50.15
76060;BME280;64759;52.220;5.170;2023-02-15T11:03:26;102533.16;;;13.66;50.63
76060;BME280;64759;52.220;5.170;2023-02-15T11:06:15;102526.91;;;13.24;51.64
76060;BME280;64759;52.220;5.170;2023-02-15T11:08:53;102518.25;;;13.46;51.63
76060;BME280;64759;52.220;5.170;2023-02-15T11:13:58;102509.47;;;13.69;50.83
76060;BME280;64759;52.220;5.170;2023-02-15T11:16:29;102501.94;;;13.44;51.29
76060;BME280;64759;52.220;5.170;2023-02-15T11:19:00;102494.59;;;13.38;51.49
76060;BME280;64759;52.220;5.170;2023-02-15T11:21:38;102501.69;;;13.14;51.37
76060;BME280;64759;52.220;5.170;2023-02-15T11:24:14;102500.72;;;13.15;51.87
76060;BME280;64759;52.220;5.170;2023-02-15T11:26:47;102490.69;;;13.10;52.13
76060;BME280;64759;52.220;5.170;2023-02-15T11:29:25;102490.53;;;13.00;52.46
76060;BME280;64759;52.220;5.170;2023-02-15T11:31:56;102485.09;;;12.92;52.53
76060;BME280;64759;52.220;5.170;2023-02-15T11:34:37;102471.16;;;12.82;52.39
76060;BME280;64759;52.220;5.170;2023-02-15T11:37:32;102476.06;;;13.09;52.42
76060;BME280;64759;52.220;5.170;2023-02-15T11:40:00;102466.69;;;13.18;52.25
76060;BME280;64759;52.220;5.170;2023-02-15T11:42:30;102465.41;;;13.23;52.29
76060;BME280;64759;52.220;5.170;2023-02-15T11:45:07;102455.06;;;12.77;52.50
76060;BME280;64759;52.220;5.170;2023-02-15T11:47:42;102442.03;;;12.55;53.82
76060;BME280;64759;52.220;5.170;2023-02-15T11:50:15;102435.03;;;12.56;53.94
76060;BME280;64759;52.220;5.170;2023-02-15T11:52:41;102441.94;;;12.68;53.75
76060;BME280;64759;52.220;5.170;2023-02-15T11:55:13;102441.50;;;12.28;53.76
76060;BME280;64759;52.220;5.170;2023-02-15T11:57:42;102440.44;;;12.30;54.16
76060;BME280;64759;52.220;5.170;2023-02-15T12:00:36;102437.13;;;12.28;54.78
76060;BME280;64759;52.220;5.170;2023-02-15T12:03:17;102437.69;;;12.21;54.76
76060;BME280;64759;52.220;5.170;2023-02-15T12:05:47;102444.91;;;12.28;54.87
76060;BME280;64759;52.220;5.170;2023-02-15T12:08:19;102437.22;;;12.27;54.98
76060;BME280;64759;52.220;5.170;2023-02-15T12:11:03;102435.94;;;11.98;55.37
76060;BME280;64759;52.220;5.170;2023-02-15T12:13:32;102426.91;;;12.14;55.42
76060;BME280;64759;52.220;5.170;2023-02-15T12:15:59;102422.91;;;12.21;55.41
76060;BME280;64759;52.220;5.170;2023-02-15T12:21:01;102423.47;;;12.14;55.60
76060;BME280;64759;52.220;5.170;2023-02-15T12:23:28;102432.16;;;12.02;55.86
76060;BME280;64759;52.220;5.170;2023-02-15T12:25:56;102420.22;;;11.99;56.11
76060;BME280;64759;52.220;5.170;2023-02-15T12:30:56;102414.19;;;11.88;56.87
76060;BME280;64759;52.220;5.170;2023-02-15T12:33:31;102411.56;;;11.88;56.56
76060;BME280;64759;52.220;5.170;2023-02-15T12:36:17;102409.34;;;11.94;56.89
76060;BME280;64759;52.220;5.170;2023-02-15T12:39:02;102404.34;;;12.04;56.68
76060;BME280;64759;52.220;5.170;2023-02-15T12:41:30;102399.47;;;11.99;56.77
76060;BME280;64759;52.220;5.170;2023-02-15T12:44:09;102406.53;;;12.21;56.72
76060;BME280;64759;52.220;5.170;2023-02-15T12:46:41;102407.50;;;12.42;55.58
76060;BME280;64759;52.220;5.170;2023-02-15T12:51:54;102412.88;;;12.63;55.11
76060;BME280;64759;52.220;5.170;2023-02-15T12:56:58;102395.75;;;12.93;54.71
76060;BME280;64759;52.220;5.170;2023-02-15T12:59:24;102405.81;;;12.87;54.51
76060;BME280;64759;52.220;5.170;2023-02-15T13:01:52;102408.38;;;12.98;54.57
76060;BME280;64759;52.220;5.170;2023-02-15T13:04:24;102401.44;;;12.98;54.25
76060;BME280;64759;52.220;5.170;2023-02-15T13:06:52;102400.72;;;12.96;54.48
76060;BME280;64759;52.220;5.170;2023-02-15T13:09:36;102392.22;;;12.94;54.91
76060;BME280;64759;52.220;5.170;2023-02-15T13:14:44;102390.66;;;13.03;55.09
76060;BME280;64759;52.220;5.170;2023-02-15T13:17:12;102390.66;;;13.03;54.52
76060;BME280;64759;52.220;5.170;2023-02-15T13:19:45;102384.75;;;13.01;54.74
76060;BME280;64759;52.220;5.170;2023-02-15T13:22:18;102383.09;;;13.00;54.94
76060;BME280;64759;52.220;5.170;2023-02-15T13:24:51;102378.25;;;12.95;55.49
76060;BME280;64759;52.220;5.170;2023-02-15T13:27:21;102382.19;;;12.90;55.61
76060;BME280;64759;52.220;5.170;2023-02-15T13:29:53;102378.97;;;12.75;55.73
76060;BME280;64759;52.220;5.170;2023-02-15T13:32:28;102374.47;;;12.66;55.70
76060;BME280;64759;52.220;5.170;2023-02-15T13:34:58;102373.06;;;12.73;56.11
76060;BME280;64759;52.220;5.170;2023-02-15T13:40:25;102375.44;;;12.98;56.04
76060;BME280;64759;52.220;5.170;2023-02-15T13:43:02;102377.09;;;12.88;55.53
76060;BME280;64759;52.220;5.170;2023-02-15T13:48:08;102374.00;;;12.83;55.47
76060;BME280;64759;52.220;5.170;2023-02-15T13:56:24;102369.50;;;12.63;55.20
76060;BME280;64759;52.220;5.170;2023-02-15T13:59:43;102365.81;;;12.43;56.28
76060;BME280;64759;52.220;5.170;2023-02-15T14:05:15;102347.91;;;12.40;57.15
76060;BME280;64759;52.220;5.170;2023-02-15T14:08:08;102352.97;;;12.42;57.57
76060;BME280;64759;52.220;5.170;2023-02-15T14:10:47;102347.41;;;12.46;57.64
76060;BME280;64759;52.220;5.170;2023-02-15T14:13:51;102346.22;;;12.39;57.78
76060;BME280;64759;52.220;5.170;2023-02-15T14:19:30;102354.50;;;12.56;57.33
76060;BME280;64759;52.220;5.170;2023-02-15T14:22:16;102348.63;;;12.65;57.42
76060;BME280;64759;52.220;5.170;2023-02-15T14:25:12;102346.00;;;12.54;57.62
76060;BME280;64759;52.220;5.170;2023-02-15T14:28:05;102347.75;;;12.53;57.38
76060;BME280;64759;52.220;5.170;2023-02-15T14:30:46;102347.75;;;12.53;57.62
76060;BME280;64759;52.220;5.170;2023-02-15T14:33:38;102341.50;;;12.56;57.72
76060;BME280;64759;52.220;5.170;2023-02-15T14:36:07;102348.84;;;12.62;58.03
76060;BME280;64759;52.220;5.170;2023-02-15T14:41:29;102340.81;;;12.42;58.02
76060;BME280;64759;52.220;5.170;2023-02-15T14:44:15;102345.53;;;12.48;57.77
76060;BME280;64759;52.220;5.170;2023-02-15T14:46:52;102336.56;;;12.64;56.74
76060;BME280;64759;52.220;5.170;2023-02-15T14:49:23;102340.81;;;12.54;56.40
76060;BME280;64759;52.220;5.170;2023-02-15T14:56:45;102338.09;;;12.44;56.58
76060;BME280;64759;52.220;5.170;2023-02-15T14:59:20;102341.88;;;12.40;56.78
76060;BME280;64759;52.220;5.170;2023-02-15T15:02:09;102353.28;;;12.26;57.09
76060;BME280;64759;52.220;5.170;2023-02-15T15:04:41;102344.03;;;12.11;57.52
76060;BME280;64759;52.220;5.170;2023-02-15T15:07:19;102349.22;;;12.11;57.86
76060;BME280;64759;52.220;5.170;2023-02-15T15:09:58;102339.03;;;11.97;57.97
76060;BME280;64759;52.220;5.170;2023-02-15T15:14:51;102339.41;;;11.93;58.67